sensor_id;sensor_type;location;lat;lon;timestamp;P1;durP1;ratioP1;P2;durP2;ratioP2
7511;SDS011;9999;48.780;9.146;2022-09-12T00:00:38;2.05;;;1.85;;
7511;SDS011;9999;48.780;9.146;2022-09-12T00:03:05;1.40;;;1.25;;
7511;SDS011;9999;48.780;9.146;2022-09-12T00:05:33;1.42;;;1.40;;
7511;SDS011;9999;48.780;9.146;2022-09-12T00:08:05;1.00;;;1.00;;
7511;SDS011;9999;48.780;9.146;2022-09-12T00:10:32;1.67;;;1.42;;
7511;SDS011;9999;48.780;9.146;2022-09-12T00:13:02;2.53;;;1.88;;
7511;SDS011;9999;48.780;9.146;2022-09-12T00:15:28;1.50;;;1.40;;
7511;SDS011;9999;48.780;9.146;2022-09-12T00:17:55;1.35;;;1.33;;
7511;SDS011;9999;48.780;9.146;2022-09-12T00:20:22;10.15;;;2.08;;
7511;SDS011;9999;48.780;9.146;2022-09-12T00:22:50;2.92;;;1.55;;
7511;SDS011;9999;48.780;9.146;2022-09-12T00:25:17;1.13;;;1.13;;
7511;SDS011;9999;48.780;9.146;2022-09-12T00:27:43;1.10;;;1.10;;
7511;SDS011;9999;48.780;9.146;2022-09-12T00:30:10;7.22;;;2.88;;
7511;SDS011;9999;48.780;9.146;2022-09-12T00:32:37;2.90;;;1.63;;
7511;SDS011;9999;48.780;9.146;2022-09-12T00:35:05;2.20;;;2.00;;
7511;SDS011;9999;48.780;9.146;2022-09-12T00:37:33;2.03;;;1.90;;
7511;SDS011;9999;48.780;9.146;2022-09-12T00:40:01;1.75;;;1.55;;
7511;SDS011;9999;48.780;9.146;2022-09-12T00:42:28;1.90;;;1.80;;
7511;SDS011;9999;48.780;9.146;2022-09-12T00:44:55;1.90;;;1.65;;
7511;SDS011;9999;48.780;9.146;2022-09-12T00:47:23;1.20;;;1.20;;
7511;SDS011;9999;48.780;9.146;2022-09-12T00:49:54;1.60;;;1.42;;
7511;SDS011;9999;48.780;9.146;2022-09-12T00:52:27;1.73;;;1.63;;
7511;SDS011;9999;48.780;9.146;2022-09-12T00:54:59;2.65;;;1.42;;
7511;SDS011;9999;48.780;9.146;2022-09-12T00:57:34;1.45;;;1.35;;
7511;SDS011;9999;48.780;9.146;2022-09-12T01:00:06;3.30;;;1.88;;
7511;SDS011;9999;48.780;9.146;2022-09-12T01:02:40;2.78;;;1.98;;
7511;SDS011;9999;48.780;9.146;2022-09-12T01:05:07;2.00;;;1.90;;
7511;SDS011;9999;48.780;9.146;2022-09-12T01:07:35;1.83;;;1.60;;
7511;SDS011;9999;48.780;9.146;2022-09-12T01:10:04;1.52;;;1.42;;
7511;SDS011;9999;48.780;9.146;2022-09-12T01:12:33;2.58;;;2.08;;
7511;SDS011;9999;48.780;9.146;2022-09-12T01:15:04;0.80;;;0.80;;
7511;SDS011;9999;48.780;9.146;2022-09-12T01:17:33;1.70;;;1.60;;
7511;SDS011;9999;48.780;9.146;2022-09-12T01:20:28;1.10;;;1.10;;
7511;SDS011;9999;48.780;9.146;2022-09-12T01:23:14;2.10;;;1.88;;
7511;SDS011;9999;48.780;9.146;2022-09-12T01:29:17;2.28;;;0.82;;
7511;SDS011;9999;48.780;9.146;2022-09-12T01:32:02;1.33;;;1.25;;
7511;SDS011;9999;48.780;9.146;2022-09-12T01:34:35;1.23;;;1.13;;
7511;SDS011;9999;48.780;9.146;2022-09-12T01:37:07;1.20;;;1.10;;
7511;SDS011;9999;48.780;9.146;2022-09-12T01:39:42;1.88;;;1.75;;
7511;SDS011;9999;48.780;9.146;2022-09-12T01:42:17;2.97;;;1.95;;
7511;SDS011;9999;48.780;9.146;2022-09-12T01:44:52;2.13;;;1.83;;
7511;SDS011;9999;48.780;9.146;2022-09-12T01:47:29;1.83;;;1.73;;
7511;SDS011;9999;48.780;9.146;2022-09-12T01:50:05;2.17;;;1.73;;
7511;SDS011;9999;48.780;9.146;2022-09-12T01:52:36;2.17;;;1.88;;
7511;SDS011;9999;48.780;9.146;2022-09-12T01:55:09;1.52;;;1.42;;
7511;SDS011;9999;48.780;9.146;2022-09-12T01:57:40;5.35;;;2.03;;
7511;SDS011;9999;48.780;9.146;2022-09-12T02:00:11;0.90;;;0.90;;
7511;SDS011;9999;48.780;9.146;2022-09-12T02:02:40;1.63;;;1.52;;
7511;SDS011;9999;48.780;9.146;2022-09-12T02:05:15;2.50;;;1.55;;
7511;SDS011;9999;48.780;9.146;2022-09-12T02:07:46;1.63;;;1.40;;
7511;SDS011;9999;48.780;9.146;2022-09-12T02:10:18;2.45;;;2.33;;
7511;SDS011;9999;48.780;9.146;2022-09-12T02:12:47;2.08;;;1.67;;
7511;SDS011;9999;48.780;9.146;2022-09-12T02:15:19;2.25;;;2.05;;
7511;SDS011;9999;48.780;9.146;2022-09-12T02:17:54;3.83;;;2.65;;
7511;SDS011;9999;48.780;9.146;2022-09-12T02:20:24;1.55;;;1.45;;
7511;SDS011;9999;48.780;9.146;2022-09-12T02:22:53;2.45;;;2.17;;
7511;SDS011;9999;48.780;9.146;2022-09-12T02:25:23;1.88;;;1.52;;
7511;SDS011;9999;48.780;9.146;2022-09-12T02:27:54;0.70;;;0.70;;
7511;SDS011;9999;48.780;9.146;2022-09-12T02:30:25;4.72;;;2.72;;
7511;SDS011;9999;48.780;9.146;2022-09-12T02:32:59;2.45;;;2.25;;
7511;SDS011;9999;48.780;9.146;2022-09-12T02:35:32;1.38;;;1.35;;
7511;SDS011;9999;48.780;9.146;2022-09-12T02:38:04;2.13;;;1.80;;
7511;SDS011;9999;48.780;9.146;2022-09-12T02:40:34;1.85;;;1.58;;
7511;SDS011;9999;48.780;9.146;2022-09-12T02:43:02;10.43;;;2.55;;
7511;SDS011;9999;48.780;9.146;2022-09-12T02:45:30;1.55;;;1.45;;
7511;SDS011;9999;48.780;9.146;2022-09-12T02:48:01;2.10;;;1.55;;
7511;SDS011;9999;48.780;9.146;2022-09-12T02:50:33;2.13;;;1.98;;
7511;SDS011;9999;48.780;9.146;2022-09-12T02:53:00;2.28;;;2.00;;
7511;SDS011;9999;48.780;9.146;2022-09-12T02:55:30;3.35;;;3.08;;
7511;SDS011;9999;48.780;9.146;2022-09-12T02:57:58;2.00;;;1.55;;
7511;SDS011;9999;48.780;9.146;2022-09-12T03:00:27;1.15;;;1.13;;
7511;SDS011;9999;48.780;9.146;2022-09-12T03:03:05;1.67;;;1.58;;
7511;SDS011;9999;48.780;9.146;2022-09-12T03:05:46;2.42;;;2.10;;
7511;SDS011;9999;48.780;9.146;2022-09-12T03:08:22;2.90;;;2.13;;
7511;SDS011;9999;48.780;9.146;2022-09-12T03:11:06;1.10;;;1.10;;
7511;SDS011;9999;48.780;9.146;2022-09-12T03:13:43;3.47;;;2.47;;
7511;SDS011;9999;48.780;9.146;2022-09-12T03:16:21;0.85;;;0.85;;
7511;SDS011;9999;48.780;9.146;2022-09-12T03:18:59;3.80;;;2.35;;
7511;SDS011;9999;48.780;9.146;2022-09-12T03:21:32;7.32;;;2.58;;
7511;SDS011;9999;48.780;9.146;2022-09-12T03:24:08;1.48;;;1.38;;
7511;SDS011;9999;48.780;9.146;2022-09-12T03:26:39;3.20;;;2.22;;
7511;SDS011;9999;48.780;9.146;2022-09-12T03:29:11;5.55;;;1.77;;
7511;SDS011;9999;48.780;9.146;2022-09-12T03:31:46;4.07;;;1.73;;
7511;SDS011;9999;48.780;9.146;2022-09-12T03:34:16;1.85;;;1.70;;
7511;SDS011;9999;48.780;9.146;2022-09-12T03:36:43;1.30;;;1.30;;
7511;SDS011;9999;48.780;9.146;2022-09-12T03:39:10;1.95;;;1.85;;
7511;SDS011;9999;48.780;9.146;2022-09-12T03:41:37;1.80;;;1.70;;
7511;SDS011;9999;48.780;9.146;2022-09-12T03:44:04;1.67;;;1.55;;
7511;SDS011;9999;48.780;9.146;2022-09-12T03:46:30;1.77;;;1.67;;
7511;SDS011;9999;48.780;9.146;2022-09-12T03:48:57;0.77;;;0.75;;
7511;SDS011;9999;48.780;9.146;2022-09-12T03:51:25;3.38;;;2.63;;
7511;SDS011;9999;48.780;9.146;2022-09-12T03:53:53;1.48;;;1.42;;
7511;SDS011;9999;48.780;9.146;2022-09-12T03:56:20;1.83;;;1.63;;
7511;SDS011;9999;48.780;9.146;2022-09-12T03:58:46;2.53;;;2.33;;
7511;SDS011;9999;48.780;9.146;2022-09-12T04:01:14;2.42;;;2.00;;
7511;SDS011;9999;48.780;9.146;2022-09-12T04:03:42;2.05;;;1.92;;
7511;SDS011;9999;48.780;9.146;2022-09-12T04:06:11;2.78;;;1.75;;
7511;SDS011;9999;48.780;9.146;2022-09-12T04:08:41;1.90;;;1.80;;
7511;SDS011;9999;48.780;9.146;2022-09-12T04:11:09;2.20;;;2.00;;
7511;SDS011;9999;48.780;9.146;2022-09-12T04:13:38;1.80;;;1.70;;
7511;SDS011;9999;48.780;9.146;2022-09-12T04:16:06;3.38;;;3.08;;
7511;SDS011;9999;48.780;9.146;2022-09-12T04:18:34;1.15;;;1.10;;
7511;SDS011;9999;48.780;9.146;2022-09-12T04:21:02;1.58;;;1.48;;
7511;SDS011;9999;48.780;9.146;2022-09-12T04:23:29;2.63;;;2.42;;
7511;SDS011;9999;48.780;9.146;2022-09-12T04:25:58;1.52;;;1.42;;
7511;SDS011;9999;48.780;9.146;2022-09-12T04:28:26;2.67;;;1.50;;
7511;SDS011;9999;48.780;9.146;2022-09-12T04:30:54;1.52;;;1.42;;
7511;SDS011;9999;48.780;9.146;2022-09-12T04:33:22;2.33;;;2.13;;
7511;SDS011;9999;48.780;9.146;2022-09-12T04:35:50;1.42;;;1.33;;
7511;SDS011;9999;48.780;9.146;2022-09-12T04:38:17;2.08;;;1.98;;
7511;SDS011;9999;48.780;9.146;2022-09-12T04:40:44;0.95;;;0.95;;
7511;SDS011;9999;48.780;9.146;2022-09-12T04:43:12;2.05;;;1.40;;
7511;SDS011;9999;48.780;9.146;2022-09-12T04:45:38;5.05;;;1.67;;
7511;SDS011;9999;48.780;9.146;2022-09-12T04:48:05;1.80;;;1.70;;
7511;SDS011;9999;48.780;9.146;2022-09-12T04:50:32;0.85;;;0.85;;
7511;SDS011;9999;48.780;9.146;2022-09-12T04:52:59;2.40;;;1.83;;
7511;SDS011;9999;48.780;9.146;2022-09-12T04:55:25;11.18;;;3.00;;
7511;SDS011;9999;48.780;9.146;2022-09-12T04:57:52;1.90;;;1.45;;
7511;SDS011;9999;48.780;9.146;2022-09-12T05:00:20;1.50;;;1.40;;
7511;SDS011;9999;48.780;9.146;2022-09-12T05:02:47;5.25;;;2.03;;
7511;SDS011;9999;48.780;9.146;2022-09-12T05:05:14;3.00;;;2.40;;
7511;SDS011;9999;48.780;9.146;2022-09-12T05:07:41;2.85;;;2.55;;
7511;SDS011;9999;48.780;9.146;2022-09-12T05:10:08;1.33;;;1.33;;
7511;SDS011;9999;48.780;9.146;2022-09-12T05:12:36;0.95;;;0.95;;
7511;SDS011;9999;48.780;9.146;2022-09-12T05:15:03;1.50;;;1.35;;
7511;SDS011;9999;48.780;9.146;2022-09-12T05:17:32;1.58;;;1.48;;
7511;SDS011;9999;48.780;9.146;2022-09-12T05:19:59;2.13;;;1.48;;
7511;SDS011;9999;48.780;9.146;2022-09-12T05:22:26;2.97;;;2.38;;
7511;SDS011;9999;48.780;9.146;2022-09-12T05:24:53;1.90;;;1.77;;
7511;SDS011;9999;48.780;9.146;2022-09-12T05:27:19;2.80;;;2.60;;
7511;SDS011;9999;48.780;9.146;2022-09-12T05:29:46;3.28;;;2.13;;
7511;SDS011;9999;48.780;9.146;2022-09-12T05:32:13;1.88;;;1.77;;
7511;SDS011;9999;48.780;9.146;2022-09-12T05:34:41;1.65;;;1.60;;
7511;SDS011;9999;48.780;9.146;2022-09-12T05:37:08;1.30;;;1.20;;
7511;SDS011;9999;48.780;9.146;2022-09-12T05:39:34;1.90;;;1.73;;
7511;SDS011;9999;48.780;9.146;2022-09-12T05:42:01;1.25;;;1.17;;
7511;SDS011;9999;48.780;9.146;2022-09-12T05:44:28;2.38;;;1.90;;
7511;SDS011;9999;48.780;9.146;2022-09-12T05:46:55;2.78;;;2.53;;
7511;SDS011;9999;48.780;9.146;2022-09-12T05:49:21;1.17;;;1.15;;
7511;SDS011;9999;48.780;9.146;2022-09-12T05:51:50;1.88;;;1.77;;
7511;SDS011;9999;48.780;9.146;2022-09-12T05:54:17;7.75;;;3.08;;
7511;SDS011;9999;48.780;9.146;2022-09-12T05:56:45;2.08;;;1.80;;
7511;SDS011;9999;48.780;9.146;2022-09-12T05:59:13;2.63;;;2.28;;
7511;SDS011;9999;48.780;9.146;2022-09-12T06:01:42;2.20;;;2.00;;
7511;SDS011;9999;48.780;9.146;2022-09-12T06:04:09;1.95;;;1.55;;
7511;SDS011;9999;48.780;9.146;2022-09-12T06:06:37;2.22;;;2.05;;
7511;SDS011;9999;48.780;9.146;2022-09-12T06:09:10;2.30;;;2.05;;
7511;SDS011;9999;48.780;9.146;2022-09-12T06:11:39;3.60;;;1.75;;
7511;SDS011;9999;48.780;9.146;2022-09-12T06:14:06;2.05;;;1.88;;
7511;SDS011;9999;48.780;9.146;2022-09-12T06:16:34;3.28;;;2.15;;
7511;SDS011;9999;48.780;9.146;2022-09-12T06:19:03;0.98;;;0.98;;
7511;SDS011;9999;48.780;9.146;2022-09-12T06:21:31;1.88;;;1.77;;
7511;SDS011;9999;48.780;9.146;2022-09-12T06:23:59;2.90;;;1.80;;
7511;SDS011;9999;48.780;9.146;2022-09-12T06:26:28;2.25;;;2.05;;
7511;SDS011;9999;48.780;9.146;2022-09-12T06:28:56;1.45;;;1.35;;
7511;SDS011;9999;48.780;9.146;2022-09-12T06:31:25;2.90;;;1.40;;
7511;SDS011;9999;48.780;9.146;2022-09-12T06:33:54;2.88;;;1.75;;
7511;SDS011;9999;48.780;9.146;2022-09-12T06:36:23;2.85;;;2.22;;
7511;SDS011;9999;48.780;9.146;2022-09-12T06:38:55;2.58;;;2.15;;
7511;SDS011;9999;48.780;9.146;2022-09-12T06:41:23;1.80;;;1.70;;
7511;SDS011;9999;48.780;9.146;2022-09-12T06:43:52;2.03;;;1.92;;
7511;SDS011;9999;48.780;9.146;2022-09-12T06:46:19;1.40;;;1.35;;
7511;SDS011;9999;48.780;9.146;2022-09-12T06:48:46;2.72;;;2.08;;
7511;SDS011;9999;48.780;9.146;2022-09-12T06:51:13;3.47;;;2.35;;
7511;SDS011;9999;48.780;9.146;2022-09-12T06:53:42;2.35;;;2.13;;
7511;SDS011;9999;48.780;9.146;2022-09-12T06:56:10;2.47;;;1.58;;
7511;SDS011;9999;48.780;9.146;2022-09-12T06:58:39;1.80;;;1.70;;
7511;SDS011;9999;48.780;9.146;2022-09-12T07:01:08;1.90;;;1.80;;
7511;SDS011;9999;48.780;9.146;2022-09-12T07:03:36;1.77;;;1.52;;
7511;SDS011;9999;48.780;9.146;2022-09-12T07:06:04;1.65;;;1.42;;
7511;SDS011;9999;48.780;9.146;2022-09-12T07:08:32;2.45;;;2.03;;
7511;SDS011;9999;48.780;9.146;2022-09-12T07:11:06;2.15;;;1.98;;
7511;SDS011;9999;48.780;9.146;2022-09-12T07:13:34;1.35;;;1.25;;
7511;SDS011;9999;48.780;9.146;2022-09-12T07:16:01;0.70;;;0.70;;
7511;SDS011;9999;48.780;9.146;2022-09-12T07:18:31;1.65;;;1.55;;
7511;SDS011;9999;48.780;9.146;2022-09-12T07:20:58;1.20;;;0.93;;
7511;SDS011;9999;48.780;9.146;2022-09-12T07:23:26;2.33;;;1.88;;
7511;SDS011;9999;48.780;9.146;2022-09-12T07:25:53;1.30;;;1.08;;
7511;SDS011;9999;48.780;9.146;2022-09-12T07:28:21;1.73;;;1.58;;
7511;SDS011;9999;48.780;9.146;2022-09-12T07:30:48;1.55;;;1.45;;
7511;SDS011;9999;48.780;9.146;2022-09-12T07:33:15;3.45;;;1.75;;
7511;SDS011;9999;48.780;9.146;2022-09-12T07:35:44;1.95;;;1.48;;
7511;SDS011;9999;48.780;9.146;2022-09-12T07:38:10;1.38;;;1.30;;
7511;SDS011;9999;48.780;9.146;2022-09-12T07:40:37;1.75;;;1.58;;
7511;SDS011;9999;48.780;9.146;2022-09-12T07:43:04;1.85;;;1.38;;
7511;SDS011;9999;48.780;9.146;2022-09-12T07:45:31;0.52;;;0.52;;
7511;SDS011;9999;48.780;9.146;2022-09-12T07:47:58;1.48;;;1.40;;
7511;SDS011;9999;48.780;9.146;2022-09-12T07:50:25;1.45;;;1.35;;
7511;SDS011;9999;48.780;9.146;2022-09-12T07:52:53;3.17;;;1.73;;
7511;SDS011;9999;48.780;9.146;2022-09-12T07:55:20;2.53;;;1.42;;
7511;SDS011;9999;48.780;9.146;2022-09-12T07:57:48;2.63;;;1.38;;
7511;SDS011;9999;48.780;9.146;2022-09-12T08:00:15;4.68;;;2.47;;
7511;SDS011;9999;48.780;9.146;2022-09-12T08:02:42;2.03;;;1.92;;
7511;SDS011;9999;48.780;9.146;2022-09-12T08:05:09;1.42;;;1.30;;
7511;SDS011;9999;48.780;9.146;2022-09-12T08:07:36;0.98;;;0.73;;
7511;SDS011;9999;48.780;9.146;2022-09-12T08:10:04;1.25;;;1.20;;
7511;SDS011;9999;48.780;9.146;2022-09-12T08:12:31;2.15;;;1.30;;
7511;SDS011;9999;48.780;9.146;2022-09-12T08:14:58;2.05;;;1.13;;
7511;SDS011;9999;48.780;9.146;2022-09-12T08:17:26;1.33;;;1.10;;
7511;SDS011;9999;48.780;9.146;2022-09-12T08:19:53;1.40;;;1.15;;
7511;SDS011;9999;48.780;9.146;2022-09-12T08:22:20;0.68;;;0.68;;
7511;SDS011;9999;48.780;9.146;2022-09-12T08:24:47;1.42;;;1.33;;
7511;SDS011;9999;48.780;9.146;2022-09-12T08:27:15;0.30;;;0.30;;
7511;SDS011;9999;48.780;9.146;2022-09-12T08:29:42;3.10;;;1.10;;
7511;SDS011;9999;48.780;9.146;2022-09-12T08:32:09;1.67;;;1.20;;
7511;SDS011;9999;48.780;9.146;2022-09-12T08:34:35;1.15;;;1.05;;
7511;SDS011;9999;48.780;9.146;2022-09-12T08:37:02;0.98;;;0.98;;
7511;SDS011;9999;48.780;9.146;2022-09-12T08:39:29;1.05;;;0.95;;
7511;SDS011;9999;48.780;9.146;2022-09-12T08:41:57;1.17;;;1.08;;
7511;SDS011;9999;48.780;9.146;2022-09-12T08:44:37;0.60;;;0.60;;
7511;SDS011;9999;48.780;9.146;2022-09-12T08:47:17;0.52;;;0.52;;
7511;SDS011;9999;48.780;9.146;2022-09-12T08:49:51;0.63;;;0.63;;
7511;SDS011;9999;48.780;9.146;2022-09-12T08:52:23;0.98;;;0.98;;
7511;SDS011;9999;48.780;9.146;2022-09-12T08:54:53;0.52;;;0.52;;
7511;SDS011;9999;48.780;9.146;2022-09-12T08:57:21;1.05;;;0.80;;
7511;SDS011;9999;48.780;9.146;2022-09-12T08:59:49;0.93;;;0.70;;
7511;SDS011;9999;48.780;9.146;2022-09-12T09:05:14;0.65;;;0.65;;
7511;SDS011;9999;48.780;9.146;2022-09-12T09:08:01;1.23;;;1.13;;
7511;SDS011;9999;48.780;9.146;2022-09-12T09:10:37;0.85;;;0.85;;
7511;SDS011;9999;48.780;9.146;2022-09-12T09:13:15;1.23;;;0.77;;
7511;SDS011;9999;48.780;9.146;2022-09-12T09:16:08;0.57;;;0.57;;
7511;SDS011;9999;48.780;9.146;2022-09-12T09:18:43;0.20;;;0.20;;
7511;SDS011;9999;48.780;9.146;2022-09-12T09:21:13;3.13;;;1.67;;
7511;SDS011;9999;48.780;9.146;2022-09-12T09:23:48;0.90;;;0.90;;
7511;SDS011;9999;48.780;9.146;2022-09-12T09:26:19;0.30;;;0.30;;
7511;SDS011;9999;48.780;9.146;2022-09-12T09:28:51;1.27;;;1.17;;
7511;SDS011;9999;48.780;9.146;2022-09-12T09:31:24;1.60;;;1.50;;
7511;SDS011;9999;48.780;9.146;2022-09-12T09:34:07;0.30;;;0.30;;
7511;SDS011;9999;48.780;9.146;2022-09-12T09:36:41;6.40;;;2.15;;
7511;SDS011;9999;48.780;9.146;2022-09-12T09:39:16;0.70;;;0.70;;
7511;SDS011;9999;48.780;9.146;2022-09-12T09:41:56;21.38;;;1.00;;
7511;SDS011;9999;48.780;9.146;2022-09-12T09:44:36;1.30;;;1.20;;
7511;SDS011;9999;48.780;9.146;2022-09-12T09:47:04;9.90;;;1.33;;
7511;SDS011;9999;48.780;9.146;2022-09-12T09:49:34;0.75;;;0.68;;
7511;SDS011;9999;48.780;9.146;2022-09-12T09:52:01;0.50;;;0.50;;
7511;SDS011;9999;48.780;9.146;2022-09-12T09:54:33;0.52;;;0.50;;
7511;SDS011;9999;48.780;9.146;2022-09-12T09:57:02;0.95;;;0.95;;
7511;SDS011;9999;48.780;9.146;2022-09-12T09:59:51;0.75;;;0.50;;
7511;SDS011;9999;48.780;9.146;2022-09-12T10:02:19;0.93;;;0.93;;
7511;SDS011;9999;48.780;9.146;2022-09-12T10:04:51;4.07;;;1.13;;
7511;SDS011;9999;48.780;9.146;2022-09-12T10:07:20;0.90;;;0.75;;
7511;SDS011;9999;48.780;9.146;2022-09-12T10:10:02;1.02;;;0.73;;
7511;SDS011;9999;48.780;9.146;2022-09-12T10:12:31;0.25;;;0.25;;
7511;SDS011;9999;48.780;9.146;2022-09-12T10:14:59;0.80;;;0.57;;
7511;SDS011;9999;48.780;9.146;2022-09-12T10:17:31;0.00;;;0.00;;
7511;SDS011;9999;48.780;9.146;2022-09-12T10:20:14;0.20;;;0.20;;
7511;SDS011;9999;48.780;9.146;2022-09-12T10:22:57;0.38;;;0.38;;
7511;SDS011;9999;48.780;9.146;2022-09-12T10:25:25;0.32;;;0.32;;
7511;SDS011;9999;48.780;9.146;2022-09-12T10:27:53;0.70;;;0.63;;
7511;SDS011;9999;48.780;9.146;2022-09-12T10:30:24;0.45;;;0.45;;
7511;SDS011;9999;48.780;9.146;2022-09-12T10:32:52;0.90;;;0.55;;
7511;SDS011;9999;48.780;9.146;2022-09-12T10:35:27;0.82;;;0.82;;
7511;SDS011;9999;48.780;9.146;2022-09-12T10:37:58;0.98;;;0.40;;
7511;SDS011;9999;48.780;9.146;2022-09-12T10:40:28;0.20;;;0.20;;
7511;SDS011;9999;48.780;9.146;2022-09-12T10:42:57;0.80;;;0.80;;
7511;SDS011;9999;48.780;9.146;2022-09-12T10:45:27;0.63;;;0.63;;
7511;SDS011;9999;48.780;9.146;2022-09-12T10:47:56;0.45;;;0.45;;
7511;SDS011;9999;48.780;9.146;2022-09-12T10:50:26;0.90;;;0.90;;
7511;SDS011;9999;48.780;9.146;2022-09-12T10:52:57;0.50;;;0.50;;
7511;SDS011;9999;48.780;9.146;2022-09-12T10:55:40;0.20;;;0.20;;
7511;SDS011;9999;48.780;9.146;2022-09-12T10:58:20;1.02;;;1.02;;
7511;SDS011;9999;48.780;9.146;2022-09-12T11:01:03;0.60;;;0.60;;
7511;SDS011;9999;48.780;9.146;2022-09-12T11:03:46;0.47;;;0.47;;
7511;SDS011;9999;48.780;9.146;2022-09-12T11:06:30;0.32;;;0.25;;
7511;SDS011;9999;48.780;9.146;2022-09-12T11:09:05;0.32;;;0.32;;
7511;SDS011;9999;48.780;9.146;2022-09-12T11:11:41;0.30;;;0.30;;
7511;SDS011;9999;48.780;9.146;2022-09-12T11:14:19;0.22;;;0.22;;
7511;SDS011;9999;48.780;9.146;2022-09-12T11:16:57;0.25;;;0.25;;
7511;SDS011;9999;48.780;9.146;2022-09-12T11:19:34;0.20;;;0.20;;
7511;SDS011;9999;48.780;9.146;2022-09-12T11:22:23;0.70;;;0.70;;
7511;SDS011;9999;48.780;9.146;2022-09-12T11:25:06;1.15;;;0.30;;
7511;SDS011;9999;48.780;9.146;2022-09-12T11:27:44;0.30;;;0.30;;
7511;SDS011;9999;48.780;9.146;2022-09-12T11:30:24;0.08;;;0.08;;
7511;SDS011;9999;48.780;9.146;2022-09-12T11:36:00;0.13;;;0.13;;
7511;SDS011;9999;48.780;9.146;2022-09-12T11:38:37;0.65;;;0.63;;
7511;SDS011;9999;48.780;9.146;2022-09-12T11:41:16;0.30;;;0.30;;
7511;SDS011;9999;48.780;9.146;2022-09-12T11:43:49;0.40;;;0.40;;
7511;SDS011;9999;48.780;9.146;2022-09-12T11:46:22;0.30;;;0.30;;
7511;SDS011;9999;48.780;9.146;2022-09-12T11:48:58;0.15;;;0.15;;
7511;SDS011;9999;48.780;9.146;2022-09-12T11:51:28;0.47;;;0.17;;
7511;SDS011;9999;48.780;9.146;2022-09-12T11:54:05;0.20;;;0.20;;
7511;SDS011;9999;48.780;9.146;2022-09-12T11:56:40;0.43;;;0.43;;
7511;SDS011;9999;48.780;9.146;2022-09-12T11:59:11;0.30;;;0.28;;
7511;SDS011;9999;48.780;9.146;2022-09-12T12:01:42;0.32;;;0.30;;
7511;SDS011;9999;48.780;9.146;2022-09-12T12:04:15;0.32;;;0.32;;
7511;SDS011;9999;48.780;9.146;2022-09-12T12:06:48;0.20;;;0.20;;
7511;SDS011;9999;48.780;9.146;2022-09-12T12:09:19;0.00;;;0.00;;
7511;SDS011;9999;48.780;9.146;2022-09-12T12:11:47;0.10;;;0.10;;
7511;SDS011;9999;48.780;9.146;2022-09-12T12:14:17;0.40;;;0.40;;
7511;SDS011;9999;48.780;9.146;2022-09-12T12:16:47;0.40;;;0.40;;
7511;SDS011;9999;48.780;9.146;2022-09-12T12:19:25;0.10;;;0.10;;
7511;SDS011;9999;48.780;9.146;2022-09-12T12:22:13;0.30;;;0.30;;
7511;SDS011;9999;48.780;9.146;2022-09-12T12:24:57;0.32;;;0.32;;
7511;SDS011;9999;48.780;9.146;2022-09-12T12:36:44;0.22;;;0.22;;
7511;SDS011;9999;48.780;9.146;2022-09-12T12:48:50;0.17;;;0.17;;
7511;SDS011;9999;48.780;9.146;2022-09-12T12:51:34;0.30;;;0.30;;
7511;SDS011;9999;48.780;9.146;2022-09-12T12:57:40;0.30;;;0.30;;
7511;SDS011;9999;48.780;9.146;2022-09-12T13:00:27;0.43;;;0.43;;
7511;SDS011;9999;48.780;9.146;2022-09-12T13:02:57;0.50;;;0.43;;
7511;SDS011;9999;48.780;9.146;2022-09-12T13:05:27;0.15;;;0.15;;
7511;SDS011;9999;48.780;9.146;2022-09-12T13:08:04;0.10;;;0.10;;
7511;SDS011;9999;48.780;9.146;2022-09-12T13:10:36;0.38;;;0.38;;
7511;SDS011;9999;48.780;9.146;2022-09-12T13:13:05;0.30;;;0.30;;
7511;SDS011;9999;48.780;9.146;2022-09-12T13:15:47;0.75;;;0.52;;
7511;SDS011;9999;48.780;9.146;2022-09-12T13:18:17;0.10;;;0.10;;
7511;SDS011;9999;48.780;9.146;2022-09-12T13:20:50;0.50;;;0.50;;
7511;SDS011;9999;48.780;9.146;2022-09-12T13:23:21;0.38;;;0.38;;
7511;SDS011;9999;48.780;9.146;2022-09-12T13:25:55;0.20;;;0.20;;
7511;SDS011;9999;48.780;9.146;2022-09-12T13:28:23;0.08;;;0.08;;
7511;SDS011;9999;48.780;9.146;2022-09-12T13:30:55;0.28;;;0.28;;
7511;SDS011;9999;48.780;9.146;2022-09-12T13:33:29;0.00;;;0.00;;
7511;SDS011;9999;48.780;9.146;2022-09-12T13:36:06;0.10;;;0.10;;
7511;SDS011;9999;48.780;9.146;2022-09-12T13:38:48;0.30;;;0.30;;
7511;SDS011;9999;48.780;9.146;2022-09-12T13:41:28;0.38;;;0.38;;
7511;SDS011;9999;48.780;9.146;2022-09-12T13:44:06;0.10;;;0.10;;
7511;SDS011;9999;48.780;9.146;2022-09-12T13:46:35;0.30;;;0.30;;
7511;SDS011;9999;48.780;9.146;2022-09-12T13:49:05;0.55;;;0.55;;
7511;SDS011;9999;48.780;9.146;2022-09-12T13:51:38;0.10;;;0.10;;
7511;SDS011;9999;48.780;9.146;2022-09-12T13:54:14;0.20;;;0.20;;
7511;SDS011;9999;48.780;9.146;2022-09-12T13:56:48;0.15;;;0.15;;
7511;SDS011;9999;48.780;9.146;2022-09-12T13:59:15;0.10;;;0.10;;
7511;SDS011;9999;48.780;9.146;2022-09-12T14:01:45;0.17;;;0.17;;
7511;SDS011;9999;48.780;9.146;2022-09-12T14:04:14;0.25;;;0.22;;
7511;SDS011;9999;48.780;9.146;2022-09-12T14:07:01;0.80;;;0.40;;
7511;SDS011;9999;48.780;9.146;2022-09-12T14:09:36;0.08;;;0.08;;
7511;SDS011;9999;48.780;9.146;2022-09-12T14:12:10;0.00;;;0.00;;
7511;SDS011;9999;48.780;9.146;2022-09-12T14:14:42;0.08;;;0.08;;
7511;SDS011;9999;48.780;9.146;2022-09-12T14:17:14;0.20;;;0.20;;
7511;SDS011;9999;48.780;9.146;2022-09-12T14:19:42;0.65;;;0.30;;
7511;SDS011;9999;48.780;9.146;2022-09-12T14:22:11;2.22;;;1.65;;
7511;SDS011;9999;48.780;9.146;2022-09-12T14:24:42;0.13;;;0.13;;
7511;SDS011;9999;48.780;9.146;2022-09-12T14:27:13;0.28;;;0.28;;
7511;SDS011;9999;48.780;9.146;2022-09-12T14:29:41;0.47;;;0.47;;
7511;SDS011;9999;48.780;9.146;2022-09-12T14:32:12;2.20;;;0.98;;
7511;SDS011;9999;48.780;9.146;2022-09-12T14:37:44;0.10;;;0.10;;
7511;SDS011;9999;48.780;9.146;2022-09-12T14:40:14;1.45;;;0.65;;
7511;SDS011;9999;48.780;9.146;2022-09-12T14:42:45;0.45;;;0.20;;
7511;SDS011;9999;48.780;9.146;2022-09-12T14:45:15;0.20;;;0.20;;
7511;SDS011;9999;48.780;9.146;2022-09-12T14:47:46;0.10;;;0.10;;
7511;SDS011;9999;48.780;9.146;2022-09-12T14:50:15;0.47;;;0.30;;
7511;SDS011;9999;48.780;9.146;2022-09-12T14:52:44;0.20;;;0.20;;
7511;SDS011;9999;48.780;9.146;2022-09-12T14:58:08;0.10;;;0.10;;
7511;SDS011;9999;48.780;9.146;2022-09-12T15:00:50;0.30;;;0.30;;
7511;SDS011;9999;48.780;9.146;2022-09-12T15:03:22;0.20;;;0.20;;
7511;SDS011;9999;48.780;9.146;2022-09-12T15:05:51;0.20;;;0.20;;
7511;SDS011;9999;48.780;9.146;2022-09-12T15:08:17;0.40;;;0.20;;
7511;SDS011;9999;48.780;9.146;2022-09-12T15:10:44;0.10;;;0.10;;
7511;SDS011;9999;48.780;9.146;2022-09-12T15:13:14;0.10;;;0.10;;
7511;SDS011;9999;48.780;9.146;2022-09-12T15:15:47;0.45;;;0.43;;
7511;SDS011;9999;48.780;9.146;2022-09-12T15:18:15;0.08;;;0.08;;
7511;SDS011;9999;48.780;9.146;2022-09-12T15:20:44;0.25;;;0.22;;
7511;SDS011;9999;48.780;9.146;2022-09-12T15:23:17;0.30;;;0.30;;
7511;SDS011;9999;48.780;9.146;2022-09-12T15:25:46;0.30;;;0.30;;
7511;SDS011;9999;48.780;9.146;2022-09-12T15:28:16;0.40;;;0.40;;
7511;SDS011;9999;48.780;9.146;2022-09-12T15:30:45;0.20;;;0.20;;
7511;SDS011;9999;48.780;9.146;2022-09-12T15:33:13;0.20;;;0.20;;
7511;SDS011;9999;48.780;9.146;2022-09-12T15:35:40;0.20;;;0.20;;
7511;SDS011;9999;48.780;9.146;2022-09-12T15:38:07;0.45;;;0.20;;
7511;SDS011;9999;48.780;9.146;2022-09-12T15:40:34;0.15;;;0.10;;
7511;SDS011;9999;48.780;9.146;2022-09-12T15:43:00;0.40;;;0.40;;
7511;SDS011;9999;48.780;9.146;2022-09-12T15:45:30;0.47;;;0.47;;
7511;SDS011;9999;48.780;9.146;2022-09-12T15:47:57;0.22;;;0.20;;
7511;SDS011;9999;48.780;9.146;2022-09-12T15:50:25;0.00;;;0.00;;
7511;SDS011;9999;48.780;9.146;2022-09-12T15:52:52;1.75;;;0.47;;
7511;SDS011;9999;48.780;9.146;2022-09-12T15:55:20;0.17;;;0.17;;
7511;SDS011;9999;48.780;9.146;2022-09-12T15:57:48;0.32;;;0.32;;
7511;SDS011;9999;48.780;9.146;2022-09-12T16:00:15;0.30;;;0.30;;
7511;SDS011;9999;48.780;9.146;2022-09-12T16:02:44;0.68;;;0.40;;
7511;SDS011;9999;48.780;9.146;2022-09-12T16:05:12;0.05;;;0.05;;
7511;SDS011;9999;48.780;9.146;2022-09-12T16:07:41;0.40;;;0.40;;
7511;SDS011;9999;48.780;9.146;2022-09-12T16:10:09;0.45;;;0.22;;
7511;SDS011;9999;48.780;9.146;2022-09-12T16:12:40;0.45;;;0.45;;
7511;SDS011;9999;48.780;9.146;2022-09-12T16:15:09;0.13;;;0.13;;